createdAt,value
2023-05-22T00:01:21.305Z,45.50
2023-05-22T00:03:50.870Z,45.55
2023-05-22T00:06:19.104Z,42.25
2023-05-22T00:08:47.192Z,43.60
2023-05-22T00:11:15.409Z,45.25
2023-05-22T00:13:43.456Z,43.40
2023-05-22T00:16:11.641Z,42.97
2023-05-22T00:18:42.918Z,45.10
2023-05-22T00:21:13.640Z,42.47
2023-05-22T00:23:42.943Z,46.30
2023-05-22T00:26:11.156Z,48.33
2023-05-22T00:28:39.229Z,45.08
2023-05-22T00:31:07.406Z,47.05
2023-05-22T00:33:35.602Z,45.60
2023-05-22T00:36:06.452Z,45.88
2023-05-22T00:38:37.803Z,45.47
2023-05-22T00:41:07.208Z,44.97
2023-05-22T00:43:36.152Z,47.30
2023-05-22T00:46:04.426Z,47.35
2023-05-22T00:48:32.588Z,47.00
2023-05-22T00:51:01.786Z,48.03
2023-05-22T00:53:32.523Z,52.95
2023-05-22T00:56:01.499Z,46.95
2023-05-22T00:58:29.621Z,45.30
2023-05-22T01:00:57.896Z,53.38
2023-05-22T01:03:28.412Z,44.75
2023-05-22T01:05:56.911Z,48.13
2023-05-22T01:08:25.138Z,45.55
2023-05-22T01:11:02.961Z,44.35
2023-05-22T01:13:35.754Z,49.58
2023-05-22T01:16:12.058Z,48.67
2023-05-22T01:18:46.463Z,46.13
2023-05-22T01:21:23.164Z,47.95
2023-05-22T01:24:25.690Z,48.15
2023-05-22T01:27:17.699Z,47.40
2023-05-22T01:29:52.881Z,47.53
2023-05-22T01:32:24.335Z,46.53
2023-05-22T01:34:55.359Z,47.17
2023-05-22T01:37:24.361Z,51.53
2023-05-22T01:39:53.310Z,46.97
2023-05-22T01:42:22.016Z,48.85
2023-05-22T01:44:50.288Z,57.08
2023-05-22T01:47:18.338Z,47.50
2023-05-22T01:49:48.364Z,45.17
2023-05-22T01:52:26.729Z,50.08
2023-05-22T01:55:03.713Z,46.78
2023-05-22T01:57:36.828Z,46.45
2023-05-22T02:00:10.996Z,48.05
2023-05-22T02:02:41.199Z,51.78
2023-05-22T02:05:13.733Z,47.03
2023-05-22T02:07:43.743Z,46.95
2023-05-22T02:10:13.179Z,50.65
2023-05-22T02:12:42.202Z,46.30
2023-05-22T02:15:10.873Z,51.17
2023-05-22T02:17:41.419Z,48.58
2023-05-22T02:20:15.470Z,47.63
2023-05-22T02:22:44.790Z,47.70
2023-05-22T02:25:14.578Z,52.30
2023-05-22T02:27:43.818Z,49.33
2023-05-22T02:30:13.005Z,51.47
2023-05-22T02:32:42.089Z,45.55
2023-05-22T02:35:12.115Z,47.75
2023-05-22T02:37:40.400Z,52.40
2023-05-22T02:40:09.989Z,45.38
2023-05-22T02:42:38.176Z,44.83
2023-05-22T02:45:08.427Z,44.95
2023-05-22T02:47:36.697Z,46.42
2023-05-22T02:50:05.064Z,48.92
2023-05-22T02:52:35.232Z,52.83
2023-05-22T02:55:04.346Z,45.35
2023-05-22T02:57:32.560Z,45.25
2023-05-22T03:00:01.589Z,46.53
2023-05-22T03:02:30.216Z,46.58
2023-05-22T03:04:59.652Z,45.95
2023-05-22T03:07:29.675Z,47.75
2023-05-22T03:09:59.279Z,48.92
2023-05-22T03:12:27.265Z,46.17
2023-05-22T03:14:55.423Z,47.28
2023-05-22T03:17:23.448Z,53.58
2023-05-22T03:19:51.570Z,48.67
2023-05-22T03:22:19.780Z,59.65
2023-05-22T03:24:47.905Z,58.35
2023-05-22T03:27:18.086Z,47.15
2023-05-22T03:29:46.297Z,51.78
2023-05-22T03:32:14.560Z,48.80
2023-05-22T03:34:43.549Z,49.00
2023-05-22T03:37:11.758Z,51.78
2023-05-22T03:39:40.547Z,45.97
2023-05-22T03:42:08.716Z,55.53
2023-05-22T03:44:38.108Z,52.78
2023-05-22T03:47:06.691Z,53.70
2023-05-22T03:49:34.857Z,49.20
2023-05-22T03:52:03.544Z,52.15
2023-05-22T03:54:31.583Z,51.08
2023-05-22T03:56:59.826Z,50.38
2023-05-22T03:59:27.847Z,48.92
2023-05-22T04:02:01.277Z,52.53
2023-05-22T04:04:29.649Z,50.33
2023-05-22T04:06:58.087Z,48.53
2023-05-22T04:09:28.517Z,48.00
2023-05-22T04:11:56.818Z,53.63
2023-05-22T04:14:24.904Z,48.38
2023-05-22T04:16:53.081Z,46.72
2023-05-22T04:19:22.651Z,50.80
2023-05-22T04:21:51.289Z,48.35
2023-05-22T04:24:19.815Z,48.20
2023-05-22T04:26:47.904Z,53.88
2023-05-22T04:29:16.558Z,47.45
2023-05-22T04:31:44.708Z,54.35
2023-05-22T04:34:13.727Z,47.22
2023-05-22T04:36:45.471Z,48.90
2023-05-22T04:39:14.364Z,49.00
2023-05-22T04:41:42.887Z,47.40
2023-05-22T04:44:10.870Z,56.53
2023-05-22T04:46:39.681Z,46.22
2023-05-22T04:49:08.568Z,50.60
2023-05-22T04:51:36.919Z,46.20
2023-05-22T04:54:06.656Z,47.47
2023-05-22T04:56:37.216Z,49.38
2023-05-22T04:59:09.142Z,47.25
2023-05-22T05:01:38.245Z,45.90
2023-05-22T05:04:06.795Z,45.10
2023-05-22T05:06:36.069Z,47.80
2023-05-22T05:09:04.367Z,45.33
2023-05-22T05:11:36.888Z,47.92
2023-05-22T05:14:05.217Z,45.75
2023-05-22T05:16:33.798Z,50.03
2023-05-22T05:19:02.410Z,55.47
2023-05-22T05:21:31.574Z,48.58
2023-05-22T05:23:59.857Z,44.90
2023-05-22T05:26:28.301Z,46.47
2023-05-22T05:28:58.137Z,45.63
2023-05-22T05:31:26.316Z,47.10
2023-05-22T05:33:56.743Z,56.53
2023-05-22T05:36:25.386Z,59.65
2023-05-22T05:38:54.276Z,57.67
2023-05-22T05:41:23.042Z,56.97
2023-05-22T05:43:52.245Z,55.83
2023-05-22T05:46:22.766Z,52.95
2023-05-22T05:48:50.942Z,57.50
2023-05-22T05:51:19.157Z,58.13
2023-05-22T05:53:47.103Z,59.92
2023-05-22T05:56:15.582Z,55.45
2023-05-22T05:58:43.581Z,58.03
2023-05-22T06:01:11.871Z,54.40
2023-05-22T06:03:41.537Z,53.13
2023-05-22T06:06:09.729Z,63.10
2023-05-22T06:08:38.370Z,60.83
2023-05-22T06:11:06.544Z,54.72
2023-05-22T06:13:37.148Z,53.17
2023-05-22T06:16:06.735Z,54.78
2023-05-22T06:18:35.166Z,55.53
2023-05-22T06:21:04.982Z,65.57
2023-05-22T06:23:33.169Z,51.30
2023-05-22T06:26:01.645Z,49.53
2023-05-22T06:28:29.851Z,55.50
2023-05-22T06:30:58.201Z,53.75
2023-05-22T06:33:26.341Z,50.83
2023-05-22T06:35:55.499Z,55.45
2023-05-22T06:38:25.022Z,58.50
2023-05-22T06:40:54.166Z,58.08
2023-05-22T06:43:25.014Z,61.33
2023-05-22T06:45:53.220Z,53.88
2023-05-22T06:48:21.374Z,53.80
2023-05-22T06:50:49.568Z,63.05
2023-05-22T06:53:17.790Z,54.83
2023-05-22T06:55:47.542Z,56.25
2023-05-22T06:58:15.908Z,55.70
2023-05-22T07:00:44.027Z,66.47
2023-05-22T07:03:12.202Z,59.97
2023-05-22T07:05:40.607Z,55.13
2023-05-22T07:08:09.669Z,54.40
2023-05-22T07:10:37.998Z,54.05
2023-05-22T07:13:07.809Z,55.75
2023-05-22T07:15:36.185Z,54.17
2023-05-22T07:18:04.855Z,52.25
2023-05-22T07:20:33.186Z,54.00
2023-05-22T07:23:01.400Z,54.22
2023-05-22T07:25:29.424Z,54.83
2023-05-22T07:27:58.378Z,53.00
2023-05-22T07:30:27.951Z,58.13
2023-05-22T07:32:56.412Z,58.38
2023-05-22T07:35:24.608Z,58.22
2023-05-22T07:37:52.693Z,56.13
2023-05-22T07:40:21.278Z,55.85
2023-05-22T07:42:49.241Z,60.58
2023-05-22T07:45:17.537Z,56.92
2023-05-22T07:47:47.262Z,58.30
2023-05-22T07:50:15.805Z,61.30
2023-05-22T07:52:43.889Z,58.42
2023-05-22T07:55:12.039Z,56.33
2023-05-22T07:57:40.784Z,57.17
2023-05-22T08:00:13.737Z,59.72
2023-05-22T08:02:42.428Z,59.80
2023-05-22T08:05:12.721Z,60.20
2023-05-22T08:07:40.920Z,60.33
2023-05-22T08:10:16.102Z,61.10
2023-05-22T08:12:44.339Z,62.55
2023-05-22T08:15:13.307Z,60.75
2023-05-22T08:17:41.539Z,62.60
2023-05-22T08:20:13.240Z,63.90
2023-05-22T08:22:41.927Z,62.97
2023-05-22T08:25:10.994Z,62.90
2023-05-22T08:27:39.640Z,61.35
2023-05-22T08:30:09.085Z,61.60
2023-05-22T08:32:37.109Z,62.10
2023-05-22T08:35:05.487Z,64.97
2023-05-22T08:37:35.206Z,61.85
2023-05-22T08:40:04.333Z,62.47
2023-05-22T08:42:32.532Z,65.45
2023-05-22T08:45:01.149Z,63.00
2023-05-22T08:47:29.561Z,62.88
2023-05-22T08:49:59.544Z,62.22
2023-05-22T08:52:34.219Z,64.45
2023-05-22T08:55:06.264Z,63.80
2023-05-22T08:57:37.508Z,67.07
2023-05-22T09:00:07.930Z,61.17
2023-05-22T09:02:36.403Z,63.15
2023-05-22T09:05:05.723Z,60.92
2023-05-22T09:07:33.978Z,63.60
2023-05-22T09:10:05.430Z,65.68
2023-05-22T09:12:33.960Z,64.07
2023-05-22T09:15:10.184Z,65.53
2023-05-22T09:17:41.001Z,64.88
2023-05-22T09:20:13.364Z,68.53
2023-05-22T09:22:41.649Z,69.70
2023-05-22T09:25:22.178Z,73.78
2023-05-22T09:27:54.565Z,72.30
2023-05-22T09:30:22.775Z,71.43
2023-05-22T09:32:51.133Z,71.80
2023-05-22T09:35:20.729Z,72.18
2023-05-22T09:37:52.058Z,74.80
2023-05-22T09:40:22.991Z,75.78
2023-05-22T09:42:51.208Z,75.35
2023-05-22T09:45:22.835Z,76.60
2023-05-22T09:47:53.903Z,78.75
2023-05-22T09:50:22.094Z,75.95
2023-05-22T09:52:52.154Z,74.57
2023-05-22T09:55:24.024Z,72.90
2023-05-22T09:57:53.941Z,71.65
2023-05-22T10:00:24.203Z,74.13
2023-05-22T10:02:58.805Z,71.95
2023-05-22T10:05:32.706Z,68.78
2023-05-22T10:08:08.891Z,68.82
2023-05-22T10:10:40.263Z,66.47
2023-05-22T10:13:09.279Z,64.65
2023-05-22T10:15:37.913Z,59.58
2023-05-22T10:18:07.713Z,63.53
2023-05-22T10:20:36.338Z,63.38
2023-05-22T10:23:04.740Z,64.05
2023-05-22T10:25:33.802Z,67.47
2023-05-22T10:28:03.990Z,69.75
2023-05-22T10:30:37.772Z,66.68
2023-05-22T10:33:12.954Z,65.03
2023-05-22T10:35:47.120Z,66.50
2023-05-22T10:38:40.894Z,66.30
2023-05-22T10:41:09.380Z,65.75
2023-05-22T10:43:42.934Z,68.70
2023-05-22T10:46:13.978Z,67.80
2023-05-22T10:48:45.534Z,68.18
2023-05-22T10:51:15.136Z,67.18
2023-05-22T10:53:45.234Z,65.13
2023-05-22T10:56:14.575Z,67.65
2023-05-22T10:58:56.464Z,67.55
2023-05-22T11:01:27.573Z,68.10
2023-05-22T11:03:57.600Z,64.90
2023-05-22T11:06:32.336Z,66.80
2023-05-22T11:09:00.817Z,64.82
2023-05-22T11:11:29.356Z,63.55
2023-05-22T11:14:04.617Z,65.25
2023-05-22T11:16:34.955Z,56.75
2023-05-22T11:19:21.978Z,55.33
2023-05-22T11:21:51.835Z,59.90
2023-05-22T11:24:20.184Z,55.47
2023-05-22T11:27:02.964Z,50.28
2023-05-22T11:29:33.295Z,54.50
2023-05-22T11:32:02.992Z,48.42
2023-05-22T11:34:31.100Z,46.92
2023-05-22T11:37:02.020Z,51.40
2023-05-22T11:41:08.000Z,47.33
2023-05-22T11:51:23.757Z,42.63
2023-05-22T11:54:06.623Z,46.60
2023-05-22T11:57:01.251Z,41.00
2023-05-22T11:59:36.353Z,48.15
2023-05-22T12:02:04.701Z,44.08
2023-05-22T12:04:34.871Z,46.97
2023-05-22T12:07:04.948Z,49.67
2023-05-22T12:09:34.207Z,44.63
2023-05-22T12:12:02.606Z,47.15
2023-05-22T12:14:32.153Z,47.15
2023-05-22T12:17:01.266Z,42.72
2023-05-22T12:19:29.865Z,46.30
2023-05-22T12:21:58.493Z,50.85
2023-05-22T12:24:28.572Z,48.70
2023-05-22T12:26:57.522Z,44.05
2023-05-22T12:29:25.940Z,50.90
2023-05-22T12:31:54.176Z,49.72
2023-05-22T12:34:23.940Z,48.33
2023-05-22T12:36:52.562Z,52.45
2023-05-22T12:39:21.403Z,46.63
2023-05-22T12:41:51.170Z,51.40
2023-05-22T12:44:19.331Z,46.97
2023-05-22T12:46:48.000Z,49.92
2023-05-22T12:49:16.453Z,46.03
2023-05-22T12:51:45.124Z,48.30
2023-05-22T12:54:14.861Z,51.95
2023-05-22T12:56:43.194Z,51.05
2023-05-22T12:59:12.661Z,47.00
2023-05-22T13:01:41.041Z,44.70
2023-05-22T13:04:09.467Z,44.90
2023-05-22T13:06:37.720Z,52.40
2023-05-22T13:09:06.298Z,45.08
2023-05-22T13:11:34.971Z,45.20
2023-05-22T13:14:03.367Z,49.60
2023-05-22T13:16:33.278Z,41.38
2023-05-22T13:19:03.575Z,41.85
2023-05-22T13:21:33.084Z,44.83
2023-05-22T13:24:01.404Z,42.20
2023-05-22T13:26:29.581Z,38.38
2023-05-22T13:28:58.004Z,40.05
2023-05-22T13:31:26.451Z,42.72
2023-05-22T13:33:56.411Z,40.65
2023-05-22T13:36:24.720Z,39.40
2023-05-22T13:38:53.251Z,36.53
2023-05-22T13:41:21.401Z,31.25
2023-05-22T13:43:49.634Z,34.13
2023-05-22T13:46:18.396Z,35.08
2023-05-22T13:48:47.042Z,30.23
2023-05-22T13:51:16.869Z,35.72
2023-05-22T13:53:45.305Z,35.05
2023-05-22T13:56:13.596Z,34.22
2023-05-22T13:58:42.096Z,37.38
2023-05-22T14:01:10.913Z,37.88
2023-05-22T14:03:39.438Z,39.65
2023-05-22T14:06:08.047Z,39.45
2023-05-22T14:08:38.776Z,40.25
2023-05-22T14:11:08.800Z,39.08
2023-05-22T14:13:38.358Z,40.20
2023-05-22T14:16:06.824Z,39.00
2023-05-22T14:18:36.642Z,37.03
2023-05-22T14:21:05.344Z,44.58
2023-05-22T14:23:34.297Z,45.08
2023-05-22T14:26:04.132Z,48.13
2023-05-22T14:28:32.809Z,43.22
2023-05-22T14:31:01.335Z,42.03
2023-05-22T14:33:31.460Z,40.60
2023-05-22T14:35:59.643Z,42.65
2023-05-22T14:38:33.503Z,37.72
2023-05-22T14:41:03.508Z,36.03
2023-05-22T14:43:31.754Z,38.13
2023-05-22T14:46:00.141Z,39.83
2023-05-22T14:48:29.511Z,39.65
2023-05-22T14:50:57.890Z,41.58
2023-05-22T14:53:26.183Z,39.70
2023-05-22T14:55:54.301Z,35.28
2023-05-22T14:58:24.012Z,33.00
2023-05-22T15:00:52.777Z,40.33
2023-05-22T15:03:26.544Z,36.15
2023-05-22T15:06:08.662Z,38.15
2023-05-22T15:08:37.762Z,28.13
2023-05-22T15:11:08.523Z,26.25
2023-05-22T15:13:39.251Z,24.13
2023-05-22T15:16:08.203Z,29.85
2023-05-22T15:18:44.486Z,31.75
2023-05-22T15:21:13.051Z,34.70
2023-05-22T15:23:41.196Z,32.83
2023-05-22T15:26:12.444Z,40.65
2023-05-22T15:29:01.283Z,36.08
2023-05-22T15:31:30.208Z,31.35
2023-05-22T15:34:01.279Z,34.30
2023-05-22T15:36:30.583Z,39.00
2023-05-22T15:38:59.049Z,46.33
2023-05-22T15:41:27.396Z,40.97
2023-05-22T15:43:57.219Z,35.17
2023-05-22T15:46:25.454Z,33.40
2023-05-22T15:48:53.627Z,29.27
2023-05-22T15:51:22.290Z,24.90
2023-05-22T15:53:50.965Z,20.67
2023-05-22T15:56:19.240Z,18.20
2023-05-22T15:58:47.545Z,22.35
2023-05-22T16:01:18.315Z,20.25
2023-05-22T16:03:46.823Z,26.25
2023-05-22T16:06:15.025Z,23.83
2023-05-22T16:08:43.148Z,17.45
2023-05-22T16:11:11.264Z,10.27
2023-05-22T16:13:42.712Z,11.15
2023-05-22T16:16:13.888Z,10.60
2023-05-22T16:18:43.620Z,11.32
2023-05-22T16:21:11.681Z,13.40
2023-05-22T16:23:42.822Z,8.82
2023-05-22T16:26:11.217Z,11.75
2023-05-22T16:28:47.499Z,12.77
2023-05-22T16:32:35.459Z,12.45
2023-05-22T16:35:05.687Z,13.80
2023-05-22T16:37:34.812Z,14.95
2023-05-22T16:40:03.049Z,14.20
2023-05-22T16:42:31.299Z,13.63
2023-05-22T16:45:01.843Z,12.98
2023-05-22T16:47:30.365Z,13.52
2023-05-22T16:49:58.425Z,14.50
2023-05-22T16:52:28.110Z,15.95
2023-05-22T16:54:56.429Z,14.57
2023-05-22T16:57:27.046Z,19.80
2023-05-22T16:59:57.730Z,21.02
2023-05-22T17:02:26.327Z,22.92
2023-05-22T17:04:54.779Z,29.80
2023-05-22T17:07:23.546Z,30.90
2023-05-22T17:09:53.337Z,20.83
2023-05-22T17:12:23.283Z,22.98
2023-05-22T17:14:51.955Z,21.20
2023-05-22T17:17:20.447Z,21.40
2023-05-22T17:19:49.288Z,27.95
2023-05-22T17:22:20.270Z,26.52
2023-05-22T17:24:49.271Z,30.33
2023-05-22T17:27:34.471Z,25.30
2023-05-22T17:30:11.311Z,27.55
2023-05-22T17:32:40.023Z,27.80
2023-05-22T17:35:09.581Z,30.08
2023-05-22T17:37:37.903Z,27.02
2023-05-22T17:40:06.767Z,23.33
2023-05-22T17:42:36.879Z,29.45
2023-05-22T17:45:08.752Z,32.90
2023-05-22T17:47:36.946Z,30.48
2023-05-22T17:50:05.993Z,27.17
2023-05-22T17:52:34.306Z,27.95
2023-05-22T17:55:03.094Z,23.88
2023-05-22T17:57:34.275Z,37.65
2023-05-22T18:00:09.618Z,36.78
2023-05-22T18:02:37.968Z,35.95
2023-05-22T18:05:07.816Z,44.42
2023-05-22T18:07:41.931Z,45.17
2023-05-22T18:10:10.706Z,46.95
2023-05-22T18:12:39.609Z,54.28
2023-05-22T18:15:12.152Z,57.22
2023-05-22T18:17:41.519Z,61.17
2023-05-22T18:20:12.970Z,62.75
2023-05-22T18:22:41.763Z,63.55
2023-05-22T18:25:10.751Z,69.45
2023-05-22T18:27:39.446Z,72.07
2023-05-22T18:30:12.517Z,67.32
2023-05-22T18:32:40.979Z,68.05
2023-05-22T18:35:12.196Z,69.25
2023-05-22T18:37:40.792Z,68.72
2023-05-22T18:40:11.254Z,68.13
2023-05-22T18:42:39.390Z,68.05
2023-05-22T18:45:11.358Z,70.20
2023-05-22T18:47:39.650Z,68.70
2023-05-22T18:50:09.028Z,74.22
2023-05-22T18:52:37.277Z,71.95
2023-05-22T18:55:06.112Z,72.20
2023-05-22T18:57:36.937Z,69.28
2023-05-22T19:00:05.833Z,70.32
2023-05-22T19:02:35.611Z,70.13
2023-05-22T19:05:04.679Z,70.25
2023-05-22T19:07:42.725Z,67.78
2023-05-22T19:10:16.747Z,67.32
2023-05-22T19:13:01.539Z,67.95
2023-05-22T19:15:43.271Z,67.32
2023-05-22T19:18:24.879Z,68.93
2023-05-22T19:21:00.302Z,66.50
2023-05-22T19:23:33.197Z,66.95
2023-05-22T19:26:09.290Z,67.35
2023-05-22T19:28:37.743Z,65.20
2023-05-22T19:34:10.396Z,65.30
2023-05-22T19:45:49.197Z,58.92
2023-05-22T19:48:44.235Z,56.47
2023-05-22T19:51:40.676Z,58.65
2023-05-22T19:58:11.636Z,54.13
2023-05-22T20:03:57.205Z,63.78
2023-05-22T20:07:00.534Z,55.30
2023-05-22T20:09:36.128Z,54.25
2023-05-22T20:12:22.604Z,56.25
2023-05-22T20:15:03.645Z,52.17
2023-05-22T20:18:00.940Z,58.63
2023-05-22T20:20:46.360Z,54.25
2023-05-22T20:23:18.765Z,53.53
2023-05-22T20:25:52.394Z,50.00
2023-05-22T20:28:22.387Z,53.25
2023-05-22T20:31:00.023Z,52.90
2023-05-22T20:33:28.621Z,51.28
2023-05-22T20:35:58.628Z,53.53
2023-05-22T20:38:32.653Z,50.97
2023-05-22T20:41:02.853Z,58.05
2023-05-22T20:43:31.491Z,52.30
2023-05-22T20:46:25.017Z,53.60
2023-05-22T20:48:53.898Z,49.78
2023-05-22T20:51:26.109Z,59.25
2023-05-22T20:53:54.369Z,54.22
2023-05-22T20:56:24.084Z,53.28
2023-05-22T20:58:52.697Z,49.15
2023-05-22T21:01:21.148Z,50.67
2023-05-22T21:03:50.178Z,49.25
2023-05-22T21:06:18.730Z,47.15
2023-05-22T21:08:47.079Z,45.50
2023-05-22T21:11:15.935Z,45.30
2023-05-22T21:13:45.815Z,46.42
2023-05-22T21:16:14.541Z,45.40
2023-05-22T21:18:43.796Z,46.63
2023-05-22T21:21:12.311Z,47.20
2023-05-22T21:23:40.543Z,46.30
2023-05-22T21:26:09.122Z,46.33
2023-05-22T21:28:37.588Z,44.83
2023-05-22T21:31:09.032Z,44.65
2023-05-22T21:33:37.735Z,44.92
2023-05-22T21:36:06.567Z,45.72
2023-05-22T21:38:35.183Z,43.95
2023-05-22T21:41:03.531Z,43.20
2023-05-22T21:43:31.867Z,42.92
2023-05-22T21:46:00.049Z,44.25
2023-05-22T21:48:29.682Z,45.10
2023-05-22T21:50:57.843Z,44.47
2023-05-22T21:53:28.194Z,42.72
2023-05-22T21:55:56.463Z,43.22
2023-05-22T21:58:24.860Z,42.95
2023-05-22T22:00:53.297Z,42.60
2023-05-22T22:03:21.683Z,44.85
2023-05-22T22:05:52.522Z,44.22
2023-05-22T22:08:20.548Z,44.50
2023-05-22T22:10:49.744Z,44.67
2023-05-22T22:13:18.010Z,43.55
2023-05-22T22:15:49.457Z,43.05
2023-05-22T22:18:18.169Z,43.55
2023-05-22T22:20:55.399Z,42.72
2023-05-22T22:23:25.382Z,44.30
2023-05-22T22:25:53.657Z,44.53
2023-05-22T22:28:26.118Z,42.92
2023-05-22T22:30:55.265Z,44.08
2023-05-22T22:33:33.240Z,45.13
2023-05-22T22:36:01.930Z,44.72
2023-05-22T22:38:33.336Z,47.08
2023-05-22T22:41:09.347Z,44.47
2023-05-22T22:43:40.590Z,45.17
2023-05-22T22:46:10.020Z,42.05
2023-05-22T22:48:41.781Z,43.33
2023-05-22T22:51:10.832Z,42.63
2023-05-22T22:53:40.665Z,41.25
2023-05-22T22:56:09.033Z,44.60
2023-05-22T22:58:37.355Z,43.85
2023-05-22T23:01:07.876Z,48.30
2023-05-22T23:03:36.800Z,43.15
2023-05-22T23:06:05.247Z,48.53
2023-05-22T23:08:33.801Z,52.53
2023-05-22T23:11:03.644Z,52.53
2023-05-22T23:13:32.092Z,48.83
2023-05-22T23:16:00.338Z,50.97
2023-05-22T23:18:29.052Z,47.97
2023-05-22T23:20:57.317Z,52.58
2023-05-22T23:23:25.484Z,46.67
2023-05-22T23:25:54.007Z,49.13
2023-05-22T23:28:23.890Z,48.95
2023-05-22T23:30:52.956Z,49.47
2023-05-22T23:33:23.660Z,46.17
2023-05-22T23:35:52.171Z,49.15
2023-05-22T23:38:20.825Z,48.25
2023-05-22T23:40:49.080Z,47.17
2023-05-22T23:43:18.705Z,49.63
2023-05-22T23:45:50.311Z,44.88
2023-05-22T23:48:18.930Z,50.63
2023-05-22T23:50:47.317Z,42.50
2023-05-22T23:53:15.749Z,51.13
2023-05-22T23:55:44.045Z,47.10
2023-05-22T23:58:12.335Z,48.95
